createdAt,value
2019-04-26T00:00:05.704Z,18.18
2019-04-26T00:02:35.627Z,18.20
2019-04-26T00:05:05.891Z,18.14
2019-04-26T00:07:35.814Z,18.14
2019-04-26T00:10:05.995Z,17.94
2019-04-26T00:12:36.248Z,17.93
2019-04-26T00:15:06.187Z,17.97
2019-04-26T00:17:36.415Z,18.00
2019-04-26T00:20:06.331Z,18.02
2019-04-26T00:22:36.267Z,18.30
2019-04-26T00:25:06.212Z,18.28
2019-04-26T00:27:36.123Z,18.13
2019-04-26T00:30:06.089Z,17.70
2019-04-26T00:32:36.003Z,17.56
2019-04-26T00:35:05.936Z,17.23
2019-04-26T00:37:36.209Z,17.15
2019-04-26T00:40:06.148Z,16.87
2019-04-26T00:42:36.065Z,16.74
2019-04-26T00:45:06.003Z,16.52
2019-04-26T00:47:35.922Z,16.29
2019-04-26T00:50:05.879Z,16.08
2019-04-26T00:52:35.835Z,16.18
2019-04-26T00:55:05.735Z,16.34
2019-04-26T00:57:35.648Z,16.31
2019-04-26T01:00:05.602Z,16.36
2019-04-26T01:02:35.527Z,16.30
2019-04-26T01:05:05.456Z,16.40
2019-04-26T01:07:35.387Z,16.29
2019-04-26T01:10:05.530Z,16.26
2019-04-26T01:12:35.478Z,16.13
2019-04-26T01:15:05.714Z,16.16
2019-04-26T01:17:35.934Z,16.11
2019-04-26T01:20:05.879Z,15.99
2019-04-26T01:22:36.065Z,16.04
2019-04-26T01:25:05.995Z,15.84
2019-04-26T01:27:35.923Z,15.89
2019-04-26T01:30:08.685Z,15.89
2019-04-26T01:32:38.617Z,15.80
2019-04-26T01:35:08.565Z,15.74
2019-04-26T01:37:38.499Z,15.68
2019-04-26T01:40:08.443Z,15.39
2019-04-26T01:42:38.653Z,15.45
2019-04-26T01:47:47.921Z,15.38
2019-04-26T01:50:17.848Z,15.42
2019-04-26T01:52:48.030Z,15.36
2019-04-26T01:55:17.967Z,15.43
2019-04-26T01:57:47.900Z,15.19
2019-04-26T02:00:17.837Z,15.26
2019-04-26T02:02:47.766Z,15.27
2019-04-26T02:05:17.728Z,15.21
2019-04-26T02:07:47.649Z,15.12
2019-04-26T02:10:17.844Z,14.94
2019-04-26T02:12:47.796Z,14.92
2019-04-26T02:15:17.707Z,14.70
2019-04-26T02:17:47.639Z,14.54
2019-04-26T02:20:36.026Z,14.49
2019-04-26T02:23:05.958Z,14.54
2019-04-26T02:25:35.889Z,14.10
2019-04-26T02:28:05.811Z,14.35
2019-04-26T02:30:36.810Z,14.39
2019-04-26T02:33:05.684Z,14.14
2019-04-26T02:38:15.250Z,14.15
2019-04-26T02:40:45.171Z,14.03
2019-04-26T02:43:15.101Z,14.07
2019-04-26T02:45:45.025Z,14.09
2019-04-26T02:54:00.516Z,14.02
2019-04-26T02:56:32.180Z,13.78
2019-04-26T02:59:00.667Z,13.90
2019-04-26T03:01:32.332Z,13.98
2019-04-26T03:04:00.510Z,13.63
2019-04-26T03:09:10.146Z,13.78
2019-04-26T03:11:55.189Z,13.92
2019-04-26T03:14:25.147Z,13.94
2019-04-26T03:19:52.470Z,13.72
2019-04-26T03:22:46.467Z,13.57
2019-04-26T03:28:20.022Z,13.30
2019-04-26T03:34:04.963Z,13.28
2019-04-26T03:47:19.654Z,12.64
2019-04-26T03:49:58.286Z,12.82
2019-04-26T03:52:46.539Z,12.66
2019-04-26T03:55:25.444Z,12.65
2019-04-26T04:05:58.832Z,12.60
2019-04-26T04:08:48.301Z,12.49
2019-04-26T04:16:48.977Z,12.34
2019-04-26T04:19:40.931Z,12.33
2019-04-26T04:30:09.831Z,12.50
2019-04-26T04:32:49.811Z,12.45
2019-04-26T04:43:50.871Z,12.21
2019-04-26T04:46:19.383Z,12.00
2019-04-26T04:48:58.246Z,12.14
2019-04-26T04:54:27.952Z,12.29
2019-04-26T04:57:15.596Z,12.39
2019-04-26T04:59:52.339Z,12.50
2019-04-26T05:08:15.718Z,12.52
2019-04-26T05:16:57.694Z,12.57
2019-04-26T05:19:40.331Z,12.85
2019-04-26T05:22:10.245Z,13.28
2019-04-26T05:24:40.761Z,13.28
2019-04-26T05:30:13.537Z,13.71
2019-04-26T05:38:53.736Z,14.06
2019-04-26T05:44:32.724Z,14.22
2019-04-26T05:47:20.360Z,14.25
2019-04-26T05:50:24.022Z,14.16
2019-04-26T05:53:24.668Z,14.08
2019-04-26T06:01:48.704Z,13.74
2019-04-26T06:07:37.032Z,13.68
2019-04-26T06:10:15.934Z,13.83
2019-04-26T06:21:03.460Z,14.61
2019-04-26T06:29:52.571Z,15.08
2019-04-26T06:37:57.420Z,15.31
2019-04-26T06:43:18.089Z,15.69
2019-04-26T06:45:48.003Z,15.57
2019-04-26T06:48:21.463Z,15.65
2019-04-26T06:51:00.303Z,15.76
2019-04-26T06:56:33.731Z,15.98
2019-04-26T06:59:12.780Z,15.98
2019-04-26T07:01:48.648Z,16.11
2019-04-26T07:04:30.831Z,16.41
2019-04-26T07:07:28.147Z,16.42
2019-04-26T07:10:01.968Z,16.46
2019-04-26T07:12:49.316Z,16.49
2019-04-26T07:15:40.170Z,16.39
2019-04-26T07:23:52.384Z,16.81
2019-04-26T07:26:46.774Z,17.11
2019-04-26T07:29:50.486Z,16.94
2019-04-26T07:32:47.856Z,16.83
2019-04-26T07:38:23.651Z,16.95
2019-04-26T07:43:50.736Z,16.73
2019-04-26T07:46:32.112Z,16.76
2019-04-26T07:49:20.583Z,17.15
2019-04-26T07:52:08.559Z,17.27
2019-04-26T07:55:15.291Z,17.42
2019-04-26T07:58:04.983Z,17.49
2019-04-26T08:08:44.887Z,17.55
2019-04-26T08:14:09.159Z,17.42
2019-04-26T08:19:20.906Z,17.53
2019-04-26T08:21:50.823Z,17.81
2019-04-26T08:24:21.457Z,17.67
2019-04-26T08:29:30.002Z,18.14
2019-04-26T08:31:59.951Z,17.95
2019-04-26T08:34:33.599Z,17.79
2019-04-26T08:37:01.945Z,17.65
2019-04-26T08:39:44.511Z,17.42
2019-04-26T08:42:00.015Z,17.34
2019-04-26T08:44:29.951Z,17.33
2019-04-26T08:49:40.128Z,17.76
2019-04-26T08:52:14.618Z,18.22
2019-04-26T08:54:39.336Z,18.76
2019-04-26T08:57:09.250Z,18.19
2019-04-26T09:02:24.067Z,17.78
2019-04-26T09:04:54.264Z,17.87
2019-04-26T09:07:24.207Z,17.78
2019-04-26T09:09:57.324Z,17.53
2019-04-26T09:12:24.049Z,17.79
2019-04-26T09:14:53.996Z,17.78
2019-04-26T09:17:27.724Z,17.80
2019-04-26T09:22:34.716Z,17.97
2019-04-26T09:25:04.986Z,17.89
2019-04-26T09:27:35.223Z,17.81
2019-04-26T09:30:06.269Z,17.53
2019-04-26T09:32:35.066Z,17.47
2019-04-26T09:35:05.312Z,17.42
2019-04-26T09:37:35.205Z,17.30
2019-04-26T09:42:44.521Z,17.37
2019-04-26T09:47:53.532Z,17.36
2019-04-26T09:50:23.821Z,17.38
2019-04-26T09:52:54.104Z,17.24
2019-04-26T09:55:34.768Z,17.19
2019-04-26T09:57:56.973Z,17.26
2019-04-26T10:00:24.259Z,17.03
2019-04-26T10:02:55.633Z,17.15
2019-04-26T10:05:25.925Z,17.01
2019-04-26T10:07:55.851Z,17.22
2019-04-26T10:10:25.799Z,17.35
2019-04-26T10:12:55.749Z,17.26
2019-04-26T10:18:08.051Z,17.07
2019-04-26T10:20:35.267Z,16.99
2019-04-26T10:23:05.201Z,17.26
2019-04-26T10:25:35.129Z,17.14
2019-04-26T10:28:05.049Z,17.17
2019-04-26T10:30:38.441Z,17.18
2019-04-26T10:33:05.217Z,17.19
2019-04-26T10:38:14.481Z,16.96
2019-04-26T10:40:44.439Z,16.98
2019-04-26T10:43:14.378Z,16.75
2019-04-26T10:48:23.637Z,16.44
2019-04-26T10:50:53.575Z,16.63
2019-04-26T10:53:25.692Z,16.49
2019-04-26T10:55:53.420Z,16.51
2019-04-26T10:58:23.338Z,16.64
2019-04-26T11:03:35.026Z,16.36
2019-04-26T11:06:02.906Z,16.37
2019-04-26T11:08:33.188Z,16.30
2019-04-26T11:11:03.402Z,16.16
2019-04-26T11:13:33.618Z,16.12
2019-04-26T11:18:42.898Z,16.59
2019-04-26T11:21:16.414Z,16.64
2019-04-26T11:23:45.486Z,16.64
2019-04-26T11:26:12.927Z,16.65
2019-04-26T11:28:42.881Z,16.65
2019-04-26T11:31:12.797Z,16.78
2019-04-26T11:33:44.964Z,16.76
2019-04-26T11:38:52.339Z,16.40
2019-04-26T11:41:22.240Z,16.21
2019-04-26T11:43:52.824Z,16.11
2019-04-26T11:46:28.979Z,16.08
2019-04-26T11:48:58.861Z,15.97
2019-04-26T11:51:23.621Z,16.06
2019-04-26T11:53:52.202Z,16.11
2019-04-26T11:56:22.137Z,16.02
2019-04-26T11:58:52.548Z,15.91
2019-04-26T12:01:22.005Z,16.14
2019-04-26T12:03:55.644Z,15.95
2019-04-26T12:09:01.510Z,15.82
2019-04-26T12:11:35.054Z,15.64
2019-04-26T12:14:03.971Z,15.64
2019-04-26T12:16:31.589Z,15.74
2019-04-26T12:19:01.879Z,15.66
2019-04-26T12:21:34.103Z,15.62
2019-04-26T12:24:01.745Z,15.38
2019-04-26T12:26:42.315Z,15.57
2019-04-26T12:29:01.947Z,15.46
2019-04-26T12:31:32.162Z,15.62
2019-04-26T12:34:02.105Z,15.62
2019-04-26T12:36:32.307Z,15.57
2019-04-26T12:39:03.284Z,15.47
2019-04-26T12:41:40.180Z,15.46
2019-04-26T12:44:03.263Z,15.21
2019-04-26T12:46:32.101Z,15.33
2019-04-26T12:49:01.981Z,15.37
2019-04-26T12:51:31.909Z,15.31
2019-04-26T12:54:03.731Z,15.33
2019-04-26T12:59:11.763Z,15.12
2019-04-26T13:01:42.673Z,15.03
2019-04-26T13:04:11.614Z,15.02
2019-04-26T13:09:21.848Z,14.76
2019-04-26T13:11:52.866Z,15.03
2019-04-26T13:14:20.720Z,14.81
2019-04-26T13:16:50.929Z,14.70
2019-04-26T13:19:21.037Z,14.53
2019-04-26T13:21:50.797Z,14.57
2019-04-26T13:24:21.034Z,14.50
2019-04-26T13:26:50.950Z,14.57
2019-04-26T13:29:21.062Z,14.48
2019-04-26T13:31:50.807Z,14.34
2019-04-26T13:34:20.774Z,14.38
2019-04-26T13:39:30.745Z,14.46
2019-04-26T13:42:04.405Z,14.44
2019-04-26T13:44:32.267Z,14.47
2019-04-26T13:47:03.705Z,14.26
2019-04-26T13:49:30.841Z,14.38
2019-04-26T13:52:00.797Z,14.25
2019-04-26T13:54:30.742Z,14.51
2019-04-26T13:57:00.920Z,14.18
2019-04-26T13:59:31.680Z,14.34
2019-04-26T14:02:10.887Z,14.13
2019-04-26T14:04:30.732Z,13.99
2019-04-26T14:07:01.051Z,14.17
2019-04-26T14:09:30.993Z,14.02
2019-04-26T14:12:02.079Z,14.00
2019-04-26T14:14:34.229Z,14.12
2019-04-26T14:17:01.706Z,14.11
2019-04-26T14:19:31.646Z,14.00
2019-04-26T14:22:03.128Z,13.82
2019-04-26T14:24:31.498Z,13.76
2019-04-26T14:27:01.416Z,14.05
2019-04-26T14:29:32.436Z,13.88
2019-04-26T14:32:01.926Z,13.86
2019-04-26T14:34:32.069Z,13.73
2019-04-26T14:37:06.775Z,13.60
2019-04-26T14:39:49.290Z,13.63
2019-04-26T14:42:01.961Z,13.66
2019-04-26T14:44:32.863Z,13.68
2019-04-26T14:47:12.909Z,13.79
2019-04-26T14:49:38.798Z,13.74
2019-04-26T14:52:01.985Z,13.81
2019-04-26T14:54:31.900Z,13.72
2019-04-26T14:57:07.740Z,13.63
2019-04-26T14:59:32.407Z,13.57
2019-04-26T15:02:02.664Z,13.58
2019-04-26T15:04:33.057Z,13.48
2019-04-26T15:07:02.107Z,13.60
2019-04-26T15:09:35.342Z,13.57
2019-04-26T15:12:03.487Z,13.29
2019-04-26T15:14:33.083Z,13.33
2019-04-26T15:17:02.760Z,13.13
2019-04-26T15:19:34.593Z,13.19
2019-04-26T15:22:04.131Z,13.11
2019-04-26T15:24:35.019Z,13.03
2019-04-26T15:27:01.904Z,12.95
2019-04-26T15:29:32.260Z,12.93
2019-04-26T15:32:03.174Z,12.74
2019-04-26T15:34:31.197Z,12.75
2019-04-26T15:39:40.453Z,12.80
2019-04-26T15:42:10.732Z,12.43
2019-04-26T15:44:40.678Z,12.59
2019-04-26T15:47:10.877Z,12.51
2019-04-26T15:49:40.842Z,12.66
2019-04-26T15:52:10.758Z,12.30
2019-04-26T15:54:42.404Z,12.13
2019-04-26T15:57:12.131Z,12.27
2019-04-26T15:59:40.595Z,12.38
2019-04-26T16:02:12.266Z,12.20
2019-04-26T16:04:42.266Z,12.31
2019-04-26T16:07:10.424Z,12.24
2019-04-26T16:09:40.371Z,12.26
2019-04-26T16:12:10.391Z,11.93
2019-04-26T16:14:42.128Z,12.04
2019-04-26T16:17:10.439Z,11.77
2019-04-26T16:19:40.367Z,11.79
2019-04-26T16:22:10.291Z,11.71
2019-04-26T16:24:40.481Z,11.63
2019-04-26T16:27:10.448Z,11.56
2019-04-26T16:29:40.376Z,11.45
2019-04-26T16:32:10.295Z,11.50
2019-04-26T16:34:41.752Z,11.45
2019-04-26T16:37:10.287Z,11.35
2019-04-26T16:39:40.304Z,11.28
2019-04-26T16:42:10.158Z,11.38
2019-04-26T16:44:44.809Z,11.17
2019-04-26T16:47:10.318Z,11.16
2019-04-26T16:49:42.090Z,10.97
2019-04-26T16:52:10.759Z,11.11
2019-04-26T16:54:42.426Z,10.86
2019-04-26T16:57:12.227Z,10.95
2019-04-26T16:59:48.989Z,10.69
2019-04-26T17:04:53.263Z,10.71
2019-04-26T17:07:25.614Z,10.82
2019-04-26T17:09:58.029Z,10.82
2019-04-26T17:12:22.623Z,10.51
2019-04-26T17:14:50.756Z,10.65
2019-04-26T17:17:22.375Z,10.61
2019-04-26T17:19:52.194Z,10.58
2019-04-26T17:22:23.098Z,10.43
2019-04-26T17:24:53.243Z,10.38
2019-04-26T17:27:22.762Z,10.45
2019-04-26T17:29:52.692Z,10.49
2019-04-26T17:32:23.274Z,10.44
2019-04-26T17:34:52.242Z,10.64
2019-04-26T17:37:21.824Z,10.37
2019-04-26T17:39:55.154Z,10.29
2019-04-26T17:42:25.264Z,10.29
2019-04-26T17:44:51.720Z,10.38
2019-04-26T17:47:21.574Z,10.43
2019-04-26T17:49:52.478Z,10.47
2019-04-26T17:52:21.810Z,10.21
2019-04-26T17:54:52.146Z,10.20
2019-04-26T17:57:33.686Z,10.39
2019-04-26T17:59:51.711Z,10.21
2019-04-26T18:02:40.694Z,10.29
2019-04-26T18:04:59.010Z,10.29
2019-04-26T18:07:39.576Z,10.19
2019-04-26T18:15:16.314Z,10.45
2019-04-26T18:17:40.585Z,10.17
2019-04-26T18:20:10.568Z,10.20
2019-04-26T18:22:40.815Z,9.96
2019-04-26T18:25:13.001Z,10.10
2019-04-26T18:27:40.784Z,10.29
2019-04-26T18:30:12.239Z,10.22
2019-04-26T18:32:45.722Z,10.19
2019-04-26T18:35:15.283Z,10.17
2019-04-26T18:37:42.594Z,10.32
2019-04-26T18:40:11.224Z,10.29
2019-04-26T18:42:42.042Z,10.27
2019-04-26T18:45:11.094Z,10.23
2019-04-26T18:47:41.374Z,10.29
2019-04-26T18:50:11.599Z,10.19
2019-04-26T18:55:21.393Z,10.23
2019-04-26T18:57:55.140Z,10.36
2019-04-26T19:00:25.719Z,10.12
2019-04-26T19:02:54.342Z,10.21
2019-04-26T19:05:26.975Z,10.13
2019-04-26T19:07:51.664Z,10.26
2019-04-26T19:10:21.617Z,10.26
2019-04-26T19:12:52.298Z,10.26
2019-04-26T19:15:21.967Z,9.90
2019-04-26T19:17:51.687Z,10.06
2019-04-26T19:20:22.799Z,10.01
2019-04-26T19:22:53.194Z,9.98
2019-04-26T19:25:23.871Z,9.98
2019-04-26T19:27:52.310Z,10.12
2019-04-26T19:30:21.749Z,10.10
2019-04-26T19:32:52.007Z,10.06
2019-04-26T19:35:21.931Z,9.99
2019-04-26T19:37:51.764Z,9.96
2019-04-26T19:40:22.760Z,9.78
2019-04-26T19:42:55.402Z,9.74
2019-04-26T19:45:22.342Z,9.90
2019-04-26T19:47:52.062Z,9.81
2019-04-26T19:50:22.847Z,9.65
2019-04-26T19:52:51.748Z,9.78
2019-04-26T19:55:23.820Z,9.48
2019-04-26T19:57:51.828Z,9.59
2019-04-26T20:00:22.131Z,9.69
2019-04-26T20:02:52.336Z,9.56
2019-04-26T20:05:22.546Z,9.65
2019-04-26T20:07:51.849Z,9.95
2019-04-26T20:10:23.168Z,10.05
2019-04-26T20:12:52.846Z,9.95
2019-04-26T20:15:26.608Z,10.05
2019-04-26T20:17:59.316Z,10.19
2019-04-26T20:20:23.743Z,9.97
2019-04-26T20:22:52.212Z,9.77
2019-04-26T20:25:22.466Z,9.93
2019-04-26T20:30:31.999Z,10.11
2019-04-26T20:33:01.915Z,10.20
2019-04-26T20:38:11.979Z,10.29
2019-04-26T20:40:43.549Z,10.26
2019-04-26T20:43:23.797Z,10.25
2019-04-26T20:45:42.686Z,10.35
2019-04-26T20:48:11.816Z,10.35
2019-04-26T20:50:41.781Z,10.30
2019-04-26T20:53:12.094Z,10.27
2019-04-26T20:55:42.730Z,10.25
2019-04-26T20:58:11.846Z,10.32
2019-04-26T21:00:53.707Z,10.36
2019-04-26T21:03:22.794Z,10.26
2019-04-26T21:05:46.215Z,10.11
2019-04-26T21:08:12.474Z,10.12
2019-04-26T21:10:41.922Z,10.06
2019-04-26T21:13:12.322Z,10.23
2019-04-26T21:15:53.483Z,10.20
2019-04-26T21:18:12.491Z,10.27
2019-04-26T21:20:42.639Z,10.32
2019-04-26T21:23:13.200Z,10.09
2019-04-26T21:25:42.183Z,10.06
2019-04-26T21:28:12.122Z,10.01
2019-04-26T21:30:42.027Z,10.11
2019-04-26T21:33:13.029Z,10.11
2019-04-26T21:35:42.864Z,10.07
2019-04-26T21:38:11.835Z,10.08
2019-04-26T21:40:43.482Z,10.06
2019-04-26T21:43:11.979Z,10.13
2019-04-26T21:45:43.958Z,10.20
2019-04-26T21:48:13.809Z,9.91
2019-04-26T21:50:42.337Z,9.84
2019-04-26T21:53:13.333Z,9.89
2019-04-26T21:55:43.463Z,10.04
2019-04-26T21:58:14.187Z,10.12
2019-04-26T22:00:43.637Z,9.90
2019-04-26T22:03:15.943Z,9.97
2019-04-26T22:08:24.618Z,9.73
2019-04-26T22:10:53.467Z,9.66
2019-04-26T22:13:23.043Z,9.64
2019-04-26T22:15:54.495Z,9.71
2019-04-26T22:18:22.407Z,9.70
2019-04-26T22:20:54.443Z,9.74
2019-04-26T22:23:23.865Z,9.70
2019-04-26T22:25:54.077Z,9.55
2019-04-26T22:28:23.532Z,9.62
2019-04-26T22:30:53.491Z,9.70
2019-04-26T22:33:23.469Z,9.62
2019-04-26T22:35:55.386Z,9.56
2019-04-26T22:38:26.597Z,9.63
2019-04-26T22:40:54.881Z,9.64
2019-04-26T22:43:22.980Z,9.75
2019-04-26T22:45:53.872Z,9.77
2019-04-26T22:48:25.163Z,9.69
2019-04-26T22:50:58.516Z,9.72
2019-04-26T22:53:25.985Z,9.72
2019-04-26T22:55:53.621Z,9.49
2019-04-26T22:58:25.478Z,9.73
2019-04-26T23:00:53.752Z,9.72
2019-04-26T23:03:24.037Z,9.65
2019-04-26T23:05:53.354Z,9.70
2019-04-26T23:08:23.632Z,9.88
2019-04-26T23:10:53.182Z,9.49
2019-04-26T23:13:23.221Z,9.58
2019-04-26T23:15:53.157Z,9.65
2019-04-26T23:18:24.138Z,9.63
2019-04-26T23:20:53.363Z,9.60
2019-04-26T23:26:05.916Z,9.68
2019-04-26T23:28:36.882Z,9.61
2019-04-26T23:31:07.770Z,9.65
2019-04-26T23:33:33.804Z,9.63
2019-04-26T23:36:03.245Z,9.71
2019-04-26T23:38:36.177Z,9.61
2019-04-26T23:41:06.989Z,9.66
2019-04-26T23:43:32.049Z,9.81
2019-04-26T23:46:01.986Z,9.62
2019-04-26T23:48:33.209Z,9.60
2019-04-26T23:51:04.960Z,9.72
2019-04-26T23:53:33.649Z,9.70
2019-04-26T23:56:01.973Z,9.60
2019-04-26T23:58:31.887Z,9.56
